createdAt,value
2023-02-18T00:02:20.986Z,2.23
2023-02-18T00:04:47.588Z,4.40
2023-02-18T00:07:13.943Z,6.00
2023-02-18T00:09:40.356Z,5.30
2023-02-18T00:12:06.859Z,7.90
2023-02-18T00:14:33.327Z,7.30
2023-02-18T00:16:59.752Z,6.28
2023-02-18T00:19:26.148Z,9.80
2023-02-18T00:21:52.570Z,8.52
2023-02-18T00:24:18.989Z,9.98
2023-02-18T00:26:45.691Z,6.83
2023-02-18T00:29:12.122Z,7.53
2023-02-18T00:31:39.433Z,10.23
2023-02-18T00:34:06.201Z,14.00
2023-02-18T00:36:32.852Z,14.57
2023-02-18T00:39:01.113Z,7.83
2023-02-18T00:41:28.544Z,13.35
2023-02-18T00:43:54.924Z,11.73
2023-02-18T00:46:21.613Z,5.22
2023-02-18T00:48:48.597Z,12.80
2023-02-18T00:51:15.324Z,10.23
2023-02-18T00:53:41.776Z,9.45
2023-02-18T00:56:08.604Z,10.88
2023-02-18T00:58:35.756Z,11.75
2023-02-18T01:01:02.359Z,14.65
2023-02-18T01:03:28.758Z,9.90
2023-02-18T01:05:55.217Z,8.13
2023-02-18T01:08:22.062Z,9.63
2023-02-18T01:10:49.527Z,8.57
2023-02-18T01:13:16.514Z,9.85
2023-02-18T01:15:43.385Z,8.43
2023-02-18T01:18:10.195Z,6.22
2023-02-18T01:20:37.394Z,8.45
2023-02-18T01:23:04.380Z,8.02
2023-02-18T01:25:31.324Z,8.20
2023-02-18T01:27:57.737Z,9.30
2023-02-18T01:30:24.542Z,7.47
2023-02-18T01:32:51.051Z,4.47
2023-02-18T01:35:19.829Z,5.65
2023-02-18T01:37:46.800Z,9.13
2023-02-18T01:40:14.279Z,11.07
2023-02-18T01:42:40.858Z,6.38
2023-02-18T01:45:25.893Z,6.60
2023-02-18T01:47:52.301Z,8.23
2023-02-18T01:50:19.301Z,4.50
2023-02-18T01:52:45.819Z,6.57
2023-02-18T01:55:12.268Z,7.13
2023-02-18T01:57:39.056Z,7.63
2023-02-18T02:00:10.376Z,6.88
2023-02-18T02:02:37.344Z,7.57
2023-02-18T02:05:04.165Z,8.87
2023-02-18T02:07:30.616Z,7.60
2023-02-18T02:09:58.389Z,10.52
2023-02-18T02:12:30.723Z,8.27
2023-02-18T02:15:06.011Z,6.63
2023-02-18T02:17:53.362Z,6.13
2023-02-18T02:20:32.004Z,6.60
2023-02-18T02:23:13.369Z,9.50
2023-02-18T02:25:58.680Z,8.20
2023-02-18T02:28:27.906Z,11.07
2023-02-18T02:31:03.774Z,13.97
2023-02-18T02:33:36.127Z,10.68
2023-02-18T02:36:05.515Z,10.70
2023-02-18T02:38:38.931Z,10.95
2023-02-18T02:41:24.517Z,10.30
2023-02-18T02:44:04.112Z,9.23
2023-02-18T02:46:43.601Z,11.07
2023-02-18T02:49:30.441Z,8.95
2023-02-18T02:52:10.379Z,9.55
2023-02-18T02:54:36.997Z,13.13
2023-02-18T02:57:18.401Z,9.60
2023-02-18T02:59:47.430Z,11.40
2023-02-18T03:02:37.691Z,9.35
2023-02-18T03:05:16.282Z,9.32
2023-02-18T03:07:51.737Z,10.65
2023-02-18T03:10:33.566Z,11.73
2023-02-18T03:13:14.714Z,8.57
2023-02-18T03:15:57.038Z,11.77
2023-02-18T03:18:35.186Z,12.15
2023-02-18T03:21:06.308Z,9.55
2023-02-18T03:23:34.857Z,9.87
2023-02-18T03:26:02.806Z,10.73
2023-02-18T03:28:30.141Z,8.40
2023-02-18T03:30:58.799Z,8.55
2023-02-18T03:33:26.841Z,6.72
2023-02-18T03:35:54.497Z,7.53
2023-02-18T03:38:35.265Z,8.52
2023-02-18T03:41:01.695Z,9.50
2023-02-18T03:43:28.598Z,5.78
2023-02-18T03:45:55.098Z,3.83
2023-02-18T03:48:21.536Z,6.10
2023-02-18T03:50:48.372Z,5.40
2023-02-18T03:53:15.011Z,6.93
2023-02-18T03:55:41.608Z,8.55
2023-02-18T03:58:08.100Z,10.50
2023-02-18T04:00:34.643Z,5.90
2023-02-18T04:03:01.132Z,9.55
2023-02-18T04:05:27.551Z,7.47
2023-02-18T04:07:54.082Z,6.72
2023-02-18T04:10:20.512Z,6.97
2023-02-18T04:12:46.927Z,8.37
2023-02-18T04:15:13.390Z,10.18
2023-02-18T04:17:39.956Z,9.77
2023-02-18T04:20:07.385Z,7.65
2023-02-18T04:22:33.916Z,7.25
2023-02-18T04:25:00.544Z,7.40
2023-02-18T04:27:27.091Z,7.63
2023-02-18T04:29:53.639Z,6.13
2023-02-18T04:32:20.091Z,7.03
2023-02-18T04:34:46.735Z,5.63
2023-02-18T04:37:13.459Z,8.50
2023-02-18T04:39:40.018Z,6.35
2023-02-18T04:42:06.474Z,6.35
2023-02-18T04:44:32.897Z,7.00
2023-02-18T04:46:59.224Z,8.57
2023-02-18T04:49:25.813Z,7.87
2023-02-18T04:51:52.969Z,7.00
2023-02-18T04:54:19.302Z,8.20
2023-02-18T04:56:45.743Z,5.72
2023-02-18T04:59:12.180Z,5.53
2023-02-18T05:01:38.560Z,5.43
2023-02-18T05:04:05.037Z,6.97
2023-02-18T05:06:31.533Z,7.75
2023-02-18T05:08:57.903Z,9.60
2023-02-18T05:11:24.470Z,5.65
2023-02-18T05:13:51.112Z,9.60
2023-02-18T05:16:17.645Z,10.15
2023-02-18T05:18:44.093Z,7.55
2023-02-18T05:21:10.574Z,7.07
2023-02-18T05:23:36.983Z,8.82
2023-02-18T05:26:03.411Z,6.97
2023-02-18T05:28:29.889Z,6.90
2023-02-18T05:30:56.363Z,6.68
2023-02-18T05:33:22.778Z,7.32
2023-02-18T05:35:49.252Z,8.10
2023-02-18T05:38:15.690Z,6.40
2023-02-18T05:40:42.042Z,5.13
2023-02-18T05:43:08.493Z,4.32
2023-02-18T05:45:35.093Z,5.90
2023-02-18T05:48:01.523Z,5.43
2023-02-18T05:50:28.205Z,8.37
2023-02-18T05:52:54.750Z,7.15
2023-02-18T05:55:21.195Z,6.88
2023-02-18T05:57:47.704Z,9.38
2023-02-18T06:00:14.498Z,7.28
2023-02-18T06:02:41.052Z,7.47
2023-02-18T06:05:07.775Z,6.90
2023-02-18T06:07:34.177Z,8.55
2023-02-18T06:10:00.727Z,6.93
2023-02-18T06:12:27.241Z,5.90
2023-02-18T06:14:53.611Z,6.40
2023-02-18T06:17:19.981Z,8.45
2023-02-18T06:19:46.530Z,8.38
2023-02-18T06:22:13.206Z,8.40
2023-02-18T06:24:39.659Z,5.95
2023-02-18T06:27:06.175Z,7.53
2023-02-18T06:29:32.573Z,5.70
2023-02-18T06:31:59.756Z,8.70
2023-02-18T06:34:27.021Z,7.70
2023-02-18T06:36:53.478Z,6.55
2023-02-18T06:39:19.860Z,7.67
2023-02-18T06:41:46.415Z,7.28
2023-02-18T06:44:12.908Z,7.95
2023-02-18T06:46:39.411Z,9.43
2023-02-18T06:49:05.816Z,10.00
2023-02-18T06:51:32.354Z,8.70
2023-02-18T06:53:59.198Z,6.90
2023-02-18T06:56:25.698Z,8.52
2023-02-18T06:58:52.218Z,17.10
2023-02-18T07:01:18.667Z,13.68
2023-02-18T07:03:45.163Z,10.90
2023-02-18T07:06:11.718Z,10.35
2023-02-18T07:08:38.255Z,7.00
2023-02-18T07:11:04.879Z,6.38
2023-02-18T07:13:31.381Z,6.10
2023-02-18T07:15:57.869Z,8.10
2023-02-18T07:18:24.369Z,8.25
2023-02-18T07:20:50.993Z,7.60
2023-02-18T07:23:17.462Z,8.02
2023-02-18T07:25:43.952Z,8.52
2023-02-18T07:28:10.471Z,7.40
2023-02-18T07:30:36.869Z,9.27
2023-02-18T07:33:04.090Z,9.25
2023-02-18T07:35:30.517Z,8.75
2023-02-18T07:37:56.965Z,9.75
2023-02-18T07:40:23.557Z,6.43
2023-02-18T07:42:50.071Z,9.38
2023-02-18T07:45:16.547Z,7.95
2023-02-18T07:47:43.266Z,10.00
2023-02-18T07:50:10.319Z,14.75
2023-02-18T07:52:36.882Z,9.70
2023-02-18T07:55:03.367Z,7.30
2023-02-18T07:57:29.778Z,8.27
2023-02-18T07:59:56.180Z,9.57
2023-02-18T08:02:23.659Z,10.15
2023-02-18T08:04:50.237Z,9.13
2023-02-18T08:07:17.544Z,10.45
2023-02-18T08:09:44.321Z,9.75
2023-02-18T08:12:10.698Z,8.68
2023-02-18T08:14:37.191Z,8.15
2023-02-18T08:17:04.499Z,8.73
2023-02-18T08:19:30.848Z,7.35
2023-02-18T08:22:00.819Z,9.25
2023-02-18T08:24:27.328Z,11.05
2023-02-18T08:27:00.670Z,10.10
2023-02-18T08:29:27.427Z,9.83
2023-02-18T08:31:54.009Z,11.98
2023-02-18T08:34:20.541Z,8.85
2023-02-18T08:36:46.984Z,9.40
2023-02-18T08:39:13.491Z,7.30
2023-02-18T08:41:39.879Z,8.57
2023-02-18T08:44:06.348Z,9.07
2023-02-18T08:46:33.457Z,9.20
2023-02-18T08:49:03.299Z,8.38
2023-02-18T08:51:29.856Z,8.15
2023-02-18T08:53:56.425Z,6.90
2023-02-18T08:56:22.838Z,7.43
2023-02-18T08:58:49.247Z,7.18
2023-02-18T09:01:16.420Z,9.90
2023-02-18T09:03:42.793Z,7.10
2023-02-18T09:06:09.396Z,6.73
2023-02-18T09:08:36.298Z,7.25
2023-02-18T09:11:03.808Z,7.03
2023-02-18T09:13:30.303Z,6.63
2023-02-18T09:16:01.456Z,6.25
2023-02-18T09:18:27.913Z,7.77
2023-02-18T09:20:58.050Z,8.35
2023-02-18T09:23:26.608Z,8.38
2023-02-18T09:25:53.437Z,7.47
2023-02-18T09:28:19.783Z,8.18
2023-02-18T09:30:46.464Z,6.60
2023-02-18T09:33:13.027Z,6.97
2023-02-18T09:35:42.938Z,7.30
2023-02-18T09:38:15.222Z,7.15
2023-02-18T09:40:50.753Z,8.32
2023-02-18T09:43:43.763Z,5.83
2023-02-18T09:46:21.631Z,6.00
2023-02-18T09:48:49.496Z,6.00
2023-02-18T09:51:16.358Z,6.30
2023-02-18T09:53:43.653Z,7.78
2023-02-18T09:56:11.925Z,10.27
2023-02-18T09:58:38.401Z,7.35
2023-02-18T10:01:13.264Z,7.68
2023-02-18T10:03:39.952Z,5.90
2023-02-18T10:06:08.539Z,8.70
2023-02-18T10:08:36.469Z,6.17
2023-02-18T10:11:03.203Z,6.40
2023-02-18T10:13:30.955Z,6.40
2023-02-18T10:15:58.295Z,6.20
2023-02-18T10:18:26.367Z,6.55
2023-02-18T10:20:55.289Z,6.77
2023-02-18T10:23:22.010Z,8.52
2023-02-18T10:25:48.682Z,6.88
2023-02-18T10:28:15.111Z,6.97
2023-02-18T10:30:51.568Z,7.05
2023-02-18T10:33:26.832Z,7.00
2023-02-18T10:35:54.571Z,8.55
2023-02-18T10:38:33.751Z,8.00
2023-02-18T10:41:06.883Z,3.97
2023-02-18T10:43:39.574Z,7.22
2023-02-18T10:46:24.063Z,5.73
2023-02-18T10:49:08.982Z,4.80
2023-02-18T10:51:36.432Z,8.60
2023-02-18T10:54:02.807Z,5.05
2023-02-18T10:56:48.748Z,7.47
2023-02-18T10:59:31.802Z,7.27
2023-02-18T11:02:03.533Z,7.55
2023-02-18T11:04:40.356Z,7.57
2023-02-18T11:07:12.599Z,7.88
2023-02-18T11:09:50.254Z,9.15
2023-02-18T11:12:24.695Z,8.67
2023-02-18T11:15:16.020Z,7.95
2023-02-18T11:17:43.195Z,8.93
2023-02-18T11:20:26.807Z,7.75
2023-02-18T11:22:57.624Z,6.93
2023-02-18T11:25:24.064Z,6.13
2023-02-18T11:28:00.825Z,6.93
2023-02-18T11:30:36.797Z,7.18
2023-02-18T11:33:07.585Z,5.57
2023-02-18T11:35:34.569Z,6.38
2023-02-18T11:38:03.077Z,6.93
2023-02-18T11:40:33.594Z,7.50
2023-02-18T11:43:19.503Z,6.90
2023-02-18T11:45:47.523Z,6.60
2023-02-18T11:48:24.066Z,5.50
2023-02-18T11:50:52.254Z,4.50
2023-02-18T11:53:35.728Z,5.78
2023-02-18T11:56:05.009Z,6.00
2023-02-18T11:58:38.424Z,5.75
2023-02-18T12:01:06.828Z,6.43
2023-02-18T12:03:51.846Z,6.40
2023-02-18T12:06:24.904Z,7.35
2023-02-18T12:08:52.718Z,8.98
2023-02-18T12:11:27.846Z,7.25
2023-02-18T12:13:56.704Z,6.00
2023-02-18T12:16:35.084Z,7.47
2023-02-18T12:19:13.745Z,5.30
2023-02-18T12:22:00.367Z,6.88
2023-02-18T12:24:41.924Z,6.30
2023-02-18T12:27:37.493Z,6.88
2023-02-18T12:30:22.770Z,5.73
2023-02-18T12:32:55.738Z,5.85
2023-02-18T12:35:43.793Z,6.32
2023-02-18T12:38:16.236Z,6.85
2023-02-18T12:41:00.866Z,6.93
2023-02-18T12:43:27.337Z,6.73
2023-02-18T12:45:59.817Z,7.53
2023-02-18T12:48:38.772Z,6.72
2023-02-18T12:51:11.437Z,6.10
2023-02-18T12:53:49.803Z,6.00
2023-02-18T12:56:19.041Z,8.33
2023-02-18T12:58:51.502Z,8.70
2023-02-18T13:01:32.903Z,6.82
2023-02-18T13:04:14.878Z,6.60
2023-02-18T13:07:05.905Z,11.02
2023-02-18T13:09:41.805Z,11.00
2023-02-18T13:12:15.217Z,10.32
2023-02-18T13:15:02.012Z,9.57
2023-02-18T13:17:30.662Z,6.03
2023-02-18T13:19:59.519Z,6.95
2023-02-18T13:22:28.014Z,7.93
2023-02-18T13:24:56.205Z,7.85
2023-02-18T13:27:22.748Z,9.45
2023-02-18T13:30:10.990Z,9.40
2023-02-18T13:32:54.027Z,7.65
2023-02-18T13:35:47.695Z,9.47
2023-02-18T13:38:29.199Z,8.07
2023-02-18T13:40:57.147Z,10.13
2023-02-18T13:43:23.692Z,9.38
2023-02-18T13:46:13.073Z,14.27
2023-02-18T13:48:50.832Z,15.20
2023-02-18T13:51:27.886Z,9.68
2023-02-18T13:53:58.826Z,10.32
2023-02-18T13:56:33.800Z,11.55
2023-02-18T13:59:11.698Z,13.15
2023-02-18T14:01:45.272Z,13.27
2023-02-18T14:04:30.638Z,10.18
2023-02-18T14:07:15.885Z,10.43
2023-02-18T14:09:43.276Z,12.70
2023-02-18T14:12:24.083Z,12.85
2023-02-18T14:14:51.036Z,12.10
2023-02-18T14:17:20.241Z,14.27
2023-02-18T14:19:55.979Z,17.40
2023-02-18T14:22:24.766Z,11.23
2023-02-18T14:24:56.165Z,11.15
2023-02-18T14:27:24.086Z,12.77
2023-02-18T14:29:52.503Z,12.02
2023-02-18T14:32:20.099Z,13.07
2023-02-18T14:34:52.914Z,11.98
2023-02-18T14:37:38.554Z,16.45
2023-02-18T14:40:15.055Z,9.67
2023-02-18T14:42:53.648Z,15.95
2023-02-18T14:45:33.010Z,11.88
2023-02-18T14:48:08.377Z,16.80
2023-02-18T14:50:36.531Z,12.50
2023-02-18T14:53:05.329Z,12.90
2023-02-18T14:55:36.099Z,10.45
2023-02-18T14:58:02.659Z,13.60
2023-02-18T15:00:34.044Z,8.20
2023-02-18T15:03:02.073Z,7.97
2023-02-18T15:05:33.006Z,7.90
2023-02-18T15:08:03.902Z,12.02
2023-02-18T15:10:45.993Z,14.98
2023-02-18T15:13:33.160Z,15.85
2023-02-18T15:16:04.501Z,10.55
2023-02-18T15:18:38.511Z,12.50
2023-02-18T15:21:07.224Z,11.23
2023-02-18T15:23:40.174Z,10.30
2023-02-18T15:26:08.434Z,10.90
2023-02-18T15:28:53.492Z,13.30
2023-02-18T15:31:26.581Z,9.13
2023-02-18T15:33:53.063Z,7.50
2023-02-18T15:36:19.548Z,9.57
2023-02-18T15:38:47.257Z,10.32
2023-02-18T15:41:14.962Z,10.50
2023-02-18T15:44:01.538Z,11.80
2023-02-18T15:46:28.382Z,7.85
2023-02-18T15:48:55.937Z,10.63
2023-02-18T15:51:28.628Z,8.43
2023-02-18T15:53:57.914Z,8.07
2023-02-18T15:56:32.876Z,10.67
2023-02-18T15:59:28.932Z,9.55
2023-02-18T16:02:01.171Z,11.23
2023-02-18T16:04:33.235Z,10.38
2023-02-18T16:07:02.193Z,10.65
2023-02-18T16:09:35.315Z,7.03
2023-02-18T16:12:19.115Z,9.82
2023-02-18T16:14:47.222Z,5.50
2023-02-18T16:17:15.700Z,9.98
2023-02-18T16:20:05.324Z,7.85
2023-02-18T16:22:32.299Z,9.37
2023-02-18T16:25:08.497Z,12.18
2023-02-18T16:27:36.329Z,7.38
2023-02-18T16:30:04.825Z,10.88
2023-02-18T16:32:31.424Z,6.00
2023-02-18T16:34:58.162Z,6.67
2023-02-18T16:37:24.543Z,7.40
2023-02-18T16:39:52.245Z,8.25
2023-02-18T16:42:18.778Z,6.10
2023-02-18T16:44:45.174Z,6.50
2023-02-18T16:47:16.205Z,8.00
2023-02-18T16:49:46.400Z,11.20
2023-02-18T16:52:19.004Z,6.50
2023-02-18T16:54:46.444Z,7.70
2023-02-18T16:57:13.304Z,7.45
2023-02-18T16:59:39.886Z,5.40
2023-02-18T17:02:19.369Z,7.05
2023-02-18T17:04:45.885Z,9.50
2023-02-18T17:07:12.490Z,8.40
2023-02-18T17:09:39.233Z,7.68
2023-02-18T17:12:09.349Z,8.70
2023-02-18T17:14:36.111Z,10.23
2023-02-18T17:17:06.282Z,10.73
2023-02-18T17:19:32.738Z,4.97
2023-02-18T17:21:59.307Z,6.32
2023-02-18T17:24:26.062Z,7.23
2023-02-18T17:26:52.634Z,8.57
2023-02-18T17:29:19.163Z,7.82
2023-02-18T17:31:47.506Z,9.23
2023-02-18T17:34:32.235Z,6.03
2023-02-18T17:36:59.023Z,8.10
2023-02-18T17:39:25.485Z,8.30
2023-02-18T17:41:51.888Z,6.15
2023-02-18T17:44:24.064Z,5.05
2023-02-18T17:46:50.639Z,5.53
2023-02-18T17:49:17.166Z,6.53
2023-02-18T17:51:43.590Z,5.70
2023-02-18T17:54:18.522Z,6.88
2023-02-18T17:56:47.310Z,6.03
2023-02-18T17:59:13.795Z,5.97
2023-02-18T18:01:40.528Z,5.87
2023-02-18T18:04:17.435Z,5.70
2023-02-18T18:06:44.265Z,5.38
2023-02-18T18:09:10.754Z,6.00
2023-02-18T18:11:37.231Z,8.85
2023-02-18T18:14:03.799Z,4.07
2023-02-18T18:16:30.647Z,5.70
2023-02-18T18:18:57.127Z,2.92
2023-02-18T18:21:32.282Z,5.38
2023-02-18T18:23:58.686Z,4.32
2023-02-18T18:26:25.138Z,5.10
2023-02-18T18:28:51.544Z,5.25
2023-02-18T18:31:19.076Z,7.43
2023-02-18T18:33:46.034Z,7.70
2023-02-18T18:36:12.432Z,10.38
2023-02-18T18:38:39.303Z,6.07
2023-02-18T18:41:05.859Z,3.75
2023-02-18T18:43:33.335Z,5.35
2023-02-18T18:46:00.505Z,6.38
2023-02-18T18:48:27.186Z,6.32
2023-02-18T18:50:53.681Z,3.87
2023-02-18T18:53:28.256Z,7.13
2023-02-18T18:55:57.599Z,8.48
2023-02-18T18:58:24.570Z,5.55
2023-02-18T19:00:54.868Z,7.85
2023-02-18T19:03:22.612Z,7.27
2023-02-18T19:05:49.581Z,8.30
2023-02-18T19:08:16.593Z,5.07
2023-02-18T19:10:44.689Z,6.78
2023-02-18T19:13:20.545Z,8.45
2023-02-18T19:15:48.378Z,7.07
2023-02-18T19:18:20.582Z,6.88
2023-02-18T19:20:48.186Z,8.25
2023-02-18T19:23:15.653Z,4.20
2023-02-18T19:25:42.613Z,6.18
2023-02-18T19:28:11.356Z,4.73
2023-02-18T19:30:38.665Z,5.13
2023-02-18T19:33:06.237Z,5.13
2023-02-18T19:35:34.442Z,3.30
2023-02-18T19:38:01.024Z,5.32
2023-02-18T19:40:30.289Z,4.80
2023-02-18T19:42:57.147Z,4.22
2023-02-18T19:45:24.397Z,8.70
2023-02-18T19:47:59.563Z,8.38
2023-02-18T19:50:28.277Z,5.00
2023-02-18T19:52:55.735Z,3.60
2023-02-18T19:55:23.503Z,4.25
2023-02-18T19:57:50.989Z,7.78
2023-02-18T20:00:20.146Z,3.30
2023-02-18T20:02:46.906Z,6.32
2023-02-18T20:05:14.658Z,4.27
2023-02-18T20:07:42.106Z,7.43
2023-02-18T20:10:12.541Z,4.72
2023-02-18T20:12:39.130Z,6.13
2023-02-18T20:15:06.506Z,5.20
2023-02-18T20:17:33.273Z,4.87
2023-02-18T20:19:59.844Z,5.47
2023-02-18T20:22:26.398Z,6.63
2023-02-18T20:24:53.637Z,4.28
2023-02-18T20:27:20.212Z,4.22
2023-02-18T20:29:46.779Z,3.97
2023-02-18T20:32:13.555Z,8.93
2023-02-18T20:34:40.162Z,5.38
2023-02-18T20:37:06.648Z,5.15
2023-02-18T20:39:33.276Z,7.25
2023-02-18T20:42:07.998Z,5.67
2023-02-18T20:44:41.621Z,6.28
2023-02-18T20:47:08.142Z,6.35
2023-02-18T20:49:34.770Z,4.80
2023-02-18T20:52:01.847Z,2.88
2023-02-18T20:54:28.348Z,5.07
2023-02-18T20:56:54.959Z,3.17
2023-02-18T20:59:22.700Z,5.65
2023-02-18T21:01:49.588Z,4.45
2023-02-18T21:04:18.539Z,4.75
2023-02-18T21:06:45.265Z,5.03
2023-02-18T21:09:14.558Z,5.10
2023-02-18T21:11:41.926Z,3.13
2023-02-18T21:14:08.873Z,4.35
2023-02-18T21:16:35.815Z,4.50
2023-02-18T21:19:02.328Z,7.20
2023-02-18T21:21:29.033Z,8.35
2023-02-18T21:23:55.489Z,5.70
2023-02-18T21:26:25.076Z,7.10
2023-02-18T21:28:54.596Z,5.43
2023-02-18T21:31:24.243Z,5.70
2023-02-18T21:33:50.613Z,3.60
2023-02-18T21:36:18.597Z,6.75
2023-02-18T21:38:50.560Z,4.65
2023-02-18T21:41:17.137Z,5.65
2023-02-18T21:43:47.615Z,5.63
2023-02-18T21:46:26.073Z,6.97
2023-02-18T21:48:53.441Z,4.95
2023-02-18T21:51:20.579Z,8.55
2023-02-18T21:53:47.135Z,8.13
2023-02-18T21:56:14.774Z,8.17
2023-02-18T21:58:41.263Z,5.65
2023-02-18T22:01:08.042Z,7.20
2023-02-18T22:03:34.913Z,5.60
2023-02-18T22:06:01.412Z,5.43
2023-02-18T22:08:27.966Z,4.77
2023-02-18T22:10:54.533Z,5.20
2023-02-18T22:13:21.029Z,6.22
2023-02-18T22:15:55.070Z,3.13
2023-02-18T22:18:22.664Z,4.93
2023-02-18T22:20:49.471Z,4.07
2023-02-18T22:23:16.105Z,4.88
2023-02-18T22:25:42.686Z,3.85
2023-02-18T22:28:09.294Z,4.65
2023-02-18T22:30:35.760Z,6.65
2023-02-18T22:33:02.275Z,9.00
2023-02-18T22:35:28.776Z,5.97
2023-02-18T22:37:55.386Z,7.15
2023-02-18T22:40:22.781Z,4.95
2023-02-18T22:42:49.237Z,10.55
2023-02-18T22:45:15.647Z,6.43
2023-02-18T22:47:42.240Z,9.13
2023-02-18T22:50:09.010Z,5.95
2023-02-18T22:52:36.019Z,8.25
2023-02-18T22:55:02.376Z,8.63
2023-02-18T22:57:28.836Z,5.53
2023-02-18T22:59:55.200Z,5.85
2023-02-18T23:02:21.829Z,3.17
2023-02-18T23:04:48.354Z,4.15
2023-02-18T23:07:14.792Z,8.57
2023-02-18T23:09:41.455Z,4.37
2023-02-18T23:12:07.823Z,3.92
2023-02-18T23:14:34.305Z,4.07
2023-02-18T23:17:02.578Z,6.47
2023-02-18T23:19:30.410Z,4.97
2023-02-18T23:21:57.098Z,3.27
2023-02-18T23:24:24.071Z,5.22
2023-02-18T23:26:50.860Z,6.28
2023-02-18T23:29:17.940Z,6.85
2023-02-18T23:31:44.674Z,7.50
2023-02-18T23:34:13.950Z,3.57
2023-02-18T23:36:41.187Z,5.78
2023-02-18T23:39:08.665Z,4.93
2023-02-18T23:41:35.410Z,8.43
2023-02-18T23:44:05.635Z,6.15
2023-02-18T23:46:33.086Z,8.10
2023-02-18T23:49:00.454Z,9.05
2023-02-18T23:51:27.339Z,8.77
2023-02-18T23:53:53.847Z,8.48
2023-02-18T23:56:21.356Z,6.30
2023-02-18T23:58:57.910Z,7.70
